createdAt,value
2019-04-25T00:02:32.556Z,10.50
2019-04-25T00:05:03.282Z,10.50
2019-04-25T00:07:33.605Z,10.50
2019-04-25T00:10:04.103Z,10.50
2019-04-25T00:12:34.453Z,10.40
2019-04-25T00:15:04.680Z,10.40
2019-04-25T00:17:35.202Z,10.40
2019-04-25T00:20:06.401Z,10.30
2019-04-25T00:22:49.214Z,10.30
2019-04-25T00:25:31.391Z,10.30
2019-04-25T00:28:01.841Z,10.20
2019-04-25T00:30:32.957Z,10.10
2019-04-25T00:33:02.585Z,10.10
2019-04-25T00:35:32.148Z,10.00
2019-04-25T00:38:02.397Z,10.00
2019-04-25T00:40:32.097Z,10.00
2019-04-25T00:43:01.727Z,10.00
2019-04-25T00:45:31.818Z,9.90
2019-04-25T00:48:02.436Z,9.90
2019-04-25T00:50:33.874Z,9.80
2019-04-25T00:53:03.888Z,9.80
2019-04-25T00:55:33.526Z,9.80
2019-04-25T00:58:09.564Z,9.80
2019-04-25T01:01:05.765Z,9.70
2019-04-25T01:03:35.500Z,9.70
2019-04-25T01:06:05.204Z,9.70
2019-04-25T01:08:34.820Z,9.70
2019-04-25T01:11:04.664Z,9.60
2019-04-25T01:13:34.556Z,9.60
2019-04-25T01:16:04.272Z,9.50
2019-04-25T01:18:35.450Z,9.50
2019-04-25T01:21:05.242Z,9.50
2019-04-25T01:23:35.108Z,9.50
2019-04-25T01:26:05.116Z,9.40
2019-04-25T01:28:35.516Z,9.40
2019-04-25T01:31:07.280Z,9.50
2019-04-25T01:33:36.909Z,9.40
2019-04-25T01:36:33.203Z,9.40
2019-04-25T01:39:09.333Z,9.40
2019-04-25T01:41:57.554Z,9.40
2019-04-25T01:44:30.982Z,9.40
2019-04-25T01:47:00.767Z,9.40
2019-04-25T01:49:30.494Z,9.40
2019-04-25T01:52:00.193Z,9.40
2019-04-25T01:54:29.952Z,9.30
2019-04-25T01:56:59.569Z,9.30
2019-04-25T01:59:29.237Z,9.30
2019-04-25T02:01:58.980Z,9.20
2019-04-25T02:04:28.831Z,9.20
2019-04-25T02:06:59.111Z,9.20
2019-04-25T02:09:28.935Z,9.10
2019-04-25T02:12:15.540Z,9.10
2019-04-25T02:14:45.236Z,9.00
2019-04-25T02:17:16.493Z,9.00
2019-04-25T02:19:46.148Z,9.00
2019-04-25T02:22:16.985Z,9.00
2019-04-25T02:24:46.608Z,9.00
2019-04-25T02:27:16.227Z,9.00
2019-04-25T02:29:46.021Z,8.90
2019-04-25T02:32:15.695Z,8.90
2019-04-25T02:34:45.714Z,8.90
2019-04-25T02:37:15.600Z,8.80
2019-04-25T02:39:45.446Z,8.80
2019-04-25T02:42:16.905Z,8.70
2019-04-25T02:45:00.204Z,8.60
2019-04-25T02:47:58.493Z,8.60
2019-04-25T02:50:41.727Z,8.60
2019-04-25T02:53:25.548Z,8.60
2019-04-25T02:55:56.409Z,8.60
2019-04-25T02:58:27.005Z,8.60
2019-04-25T03:01:03.829Z,8.40
2019-04-25T03:03:28.514Z,8.40
2019-04-25T03:05:59.652Z,8.40
2019-04-25T03:08:29.838Z,8.40
2019-04-25T03:10:59.899Z,8.40
2019-04-25T03:13:29.869Z,8.50
2019-04-25T03:16:00.603Z,8.50
2019-04-25T03:18:31.995Z,8.50
2019-04-25T03:21:17.251Z,8.50
2019-04-25T03:23:47.959Z,8.40
2019-04-25T03:26:17.573Z,8.50
2019-04-25T03:28:47.472Z,8.50
2019-04-25T03:31:22.447Z,8.50
2019-04-25T03:33:48.349Z,8.50
2019-04-25T03:36:17.892Z,8.60
2019-04-25T03:38:47.441Z,8.50
2019-04-25T03:41:16.995Z,8.60
2019-04-25T03:43:46.581Z,8.60
2019-04-25T03:46:16.271Z,8.60
2019-04-25T03:48:45.976Z,8.60
2019-04-25T03:51:15.879Z,8.60
2019-04-25T03:53:45.780Z,8.60
2019-04-25T03:56:15.700Z,8.70
2019-04-25T03:58:45.821Z,8.60
2019-04-25T04:01:21.883Z,8.70
2019-04-25T04:03:51.681Z,8.70
2019-04-25T04:06:21.303Z,8.70
2019-04-25T04:08:50.929Z,8.70
2019-04-25T04:11:20.470Z,8.60
2019-04-25T04:13:50.030Z,8.60
2019-04-25T04:16:23.242Z,8.60
2019-04-25T04:18:55.569Z,8.60
2019-04-25T04:21:43.310Z,8.60
2019-04-25T04:24:34.188Z,8.60
2019-04-25T04:27:09.165Z,8.60
2019-04-25T04:29:39.796Z,8.60
2019-04-25T04:32:10.473Z,8.50
2019-04-25T04:34:40.432Z,8.60
2019-04-25T04:37:10.051Z,8.60
2019-04-25T04:39:40.241Z,8.60
2019-04-25T04:42:09.869Z,8.50
2019-04-25T04:44:39.424Z,8.50
2019-04-25T04:47:09.955Z,8.50
2019-04-25T04:49:40.065Z,8.60
2019-04-25T04:52:10.450Z,8.60
2019-04-25T04:54:40.138Z,8.60
2019-04-25T04:57:23.158Z,8.60
2019-04-25T04:59:40.918Z,8.70
2019-04-25T05:02:23.294Z,8.70
2019-04-25T05:05:30.612Z,8.60
2019-04-25T05:08:07.805Z,8.70
2019-04-25T05:10:37.366Z,8.60
2019-04-25T05:13:06.912Z,8.60
2019-04-25T05:15:36.540Z,8.50
2019-04-25T05:18:06.392Z,8.50
2019-04-25T05:20:35.934Z,8.50
2019-04-25T05:23:05.534Z,8.60
2019-04-25T05:25:35.237Z,8.60
2019-04-25T05:28:05.403Z,8.70
2019-04-25T05:30:43.487Z,8.80
2019-04-25T05:33:14.698Z,8.80
2019-04-25T05:35:45.170Z,8.80
2019-04-25T05:38:15.538Z,8.80
2019-04-25T05:41:11.247Z,8.90
2019-04-25T05:43:41.065Z,9.00
2019-04-25T05:46:10.871Z,9.00
2019-04-25T05:48:40.426Z,8.90
2019-04-25T05:51:09.979Z,8.90
2019-04-25T05:53:39.889Z,8.90
2019-04-25T05:56:09.706Z,9.00
2019-04-25T05:58:39.256Z,9.10
2019-04-25T06:01:08.810Z,9.20
2019-04-25T06:03:38.624Z,9.20
2019-04-25T06:06:09.324Z,9.20
2019-04-25T06:08:54.093Z,9.30
2019-04-25T06:11:45.840Z,9.30
2019-04-25T06:14:16.107Z,9.40
2019-04-25T06:16:45.968Z,9.60
2019-04-25T06:19:38.419Z,9.70
2019-04-25T06:22:13.064Z,9.80
2019-04-25T06:24:51.460Z,10.00
2019-04-25T06:27:27.225Z,10.10
2019-04-25T06:30:17.819Z,10.10
2019-04-25T06:32:47.822Z,10.10
2019-04-25T06:35:25.144Z,10.20
2019-04-25T06:37:55.459Z,10.30
2019-04-25T06:40:29.429Z,10.30
2019-04-25T06:42:58.264Z,10.40
2019-04-25T06:45:54.077Z,10.40
2019-04-25T06:48:45.244Z,10.50
2019-04-25T06:51:14.968Z,10.70
2019-04-25T06:53:46.500Z,10.80
2019-04-25T06:56:16.636Z,10.90
2019-04-25T06:58:46.198Z,11.00
2019-04-25T07:01:15.745Z,11.10
2019-04-25T07:03:45.971Z,11.30
2019-04-25T07:06:25.270Z,11.40
2019-04-25T07:08:56.053Z,11.60
2019-04-25T07:11:26.952Z,11.70
2019-04-25T07:13:56.795Z,11.80
2019-04-25T07:16:27.281Z,11.90
2019-04-25T07:18:57.230Z,12.00
2019-04-25T07:21:28.139Z,12.20
2019-04-25T07:23:57.809Z,12.30
2019-04-25T07:26:50.646Z,12.30
2019-04-25T07:29:45.825Z,12.50
2019-04-25T07:32:29.702Z,12.60
2019-04-25T07:34:58.301Z,12.80
2019-04-25T07:37:28.572Z,12.90
2019-04-25T07:40:13.857Z,12.90
2019-04-25T07:42:45.391Z,13.00
2019-04-25T07:45:16.259Z,13.10
2019-04-25T07:47:46.109Z,13.20
2019-04-25T07:50:16.092Z,13.20
2019-04-25T07:52:45.652Z,13.30
2019-04-25T07:55:16.488Z,13.30
2019-04-25T07:57:55.268Z,13.30
2019-04-25T08:00:25.226Z,13.40
2019-04-25T08:02:54.951Z,13.40
2019-04-25T08:05:24.501Z,13.50
2019-04-25T08:07:54.357Z,13.50
2019-04-25T08:10:25.197Z,13.60
2019-04-25T08:12:54.742Z,13.70
2019-04-25T08:15:36.240Z,13.70
2019-04-25T08:18:17.560Z,13.70
2019-04-25T08:20:47.500Z,13.80
2019-04-25T08:23:17.304Z,13.80
2019-04-25T08:25:47.000Z,13.90
2019-04-25T08:28:28.270Z,14.00
2019-04-25T08:30:58.393Z,14.10
2019-04-25T08:33:29.062Z,14.20
2019-04-25T08:36:06.633Z,14.30
2019-04-25T08:38:31.501Z,14.30
2019-04-25T08:41:01.581Z,14.50
2019-04-25T08:43:32.547Z,14.60
2019-04-25T08:46:04.197Z,14.70
2019-04-25T08:48:37.719Z,14.80
2019-04-25T08:51:13.432Z,14.90
2019-04-25T08:53:51.364Z,15.00
2019-04-25T08:56:25.823Z,15.10
2019-04-25T08:59:17.545Z,15.20
2019-04-25T09:01:53.546Z,15.30
2019-04-25T09:04:44.517Z,15.50
2019-04-25T09:07:14.131Z,15.70
2019-04-25T09:09:45.202Z,16.10
2019-04-25T09:12:14.953Z,16.30
2019-04-25T09:14:46.486Z,16.50
2019-04-25T09:17:38.216Z,16.70
2019-04-25T09:20:08.844Z,16.90
2019-04-25T09:22:38.681Z,17.20
2019-04-25T09:25:09.366Z,17.40
2019-04-25T09:27:40.402Z,17.60
2019-04-25T09:30:10.776Z,17.80
2019-04-25T09:32:40.969Z,17.90
2019-04-25T09:35:10.992Z,18.10
2019-04-25T09:37:40.832Z,18.20
2019-04-25T09:40:14.767Z,18.30
2019-04-25T09:42:46.234Z,18.50
2019-04-25T09:45:47.157Z,18.60
2019-04-25T09:48:31.464Z,18.70
2019-04-25T09:51:05.640Z,18.90
2019-04-25T09:53:43.734Z,19.00
2019-04-25T09:56:16.136Z,19.20
2019-04-25T09:58:58.136Z,19.30
2019-04-25T10:01:28.505Z,19.50
2019-04-25T10:03:58.061Z,19.60
2019-04-25T10:06:27.873Z,19.60
2019-04-25T10:08:57.501Z,19.70
2019-04-25T10:11:27.564Z,19.80
2019-04-25T10:14:13.573Z,19.90
2019-04-25T10:16:44.478Z,19.90
2019-04-25T10:19:15.744Z,20.10
2019-04-25T10:21:45.576Z,20.20
2019-04-25T10:24:24.515Z,20.30
2019-04-25T10:26:54.777Z,20.40
2019-04-25T10:29:24.463Z,20.40
2019-04-25T10:31:55.827Z,20.40
2019-04-25T10:34:26.414Z,20.50
2019-04-25T10:36:56.726Z,20.60
2019-04-25T10:39:27.637Z,20.70
2019-04-25T10:41:57.627Z,20.70
2019-04-25T10:44:27.602Z,20.80
2019-04-25T10:46:57.927Z,20.80
2019-04-25T10:49:28.092Z,20.80
2019-04-25T10:51:57.699Z,20.80
2019-04-25T10:54:27.337Z,20.80
2019-04-25T10:56:56.948Z,20.80
2019-04-25T10:59:26.589Z,21.00
2019-04-25T11:01:56.689Z,21.10
2019-04-25T11:04:40.479Z,21.20
2019-04-25T11:07:10.142Z,21.20
2019-04-25T11:09:40.638Z,21.20
2019-04-25T11:12:12.896Z,21.30
2019-04-25T11:14:44.304Z,21.30
2019-04-25T11:17:15.453Z,21.40
2019-04-25T11:19:45.540Z,21.40
2019-04-25T11:22:15.699Z,21.50
2019-04-25T11:24:45.819Z,21.60
2019-04-25T11:27:15.891Z,21.70
2019-04-25T11:29:46.238Z,21.80
2019-04-25T11:32:19.877Z,21.80
2019-04-25T11:34:50.679Z,21.90
2019-04-25T11:37:23.887Z,21.90
2019-04-25T11:40:00.281Z,21.90
2019-04-25T11:42:29.931Z,21.90
2019-04-25T11:45:00.541Z,21.90
2019-04-25T11:47:30.676Z,21.90
2019-04-25T11:50:00.776Z,22.00
2019-04-25T11:52:30.477Z,22.00
2019-04-25T11:55:00.512Z,22.00
2019-04-25T11:57:30.468Z,22.10
2019-04-25T12:00:00.885Z,22.20
2019-04-25T12:02:30.530Z,22.30
2019-04-25T12:05:00.361Z,22.30
2019-04-25T12:07:30.168Z,22.20
2019-04-25T12:09:59.823Z,22.20
2019-04-25T12:12:30.377Z,22.20
2019-04-25T12:15:00.637Z,22.30
2019-04-25T12:17:30.261Z,22.30
2019-04-25T12:20:00.151Z,22.40
2019-04-25T12:22:30.049Z,22.50
2019-04-25T12:24:59.652Z,22.60
2019-04-25T12:27:29.216Z,22.70
2019-04-25T12:29:59.553Z,22.80
2019-04-25T12:32:29.316Z,22.90
2019-04-25T12:34:59.320Z,23.00
2019-04-25T12:37:28.984Z,23.10
2019-04-25T12:39:58.958Z,23.10
2019-04-25T12:42:28.967Z,23.20
2019-04-25T12:45:17.509Z,23.30
2019-04-25T12:47:48.136Z,23.30
2019-04-25T12:50:18.826Z,23.40
2019-04-25T12:52:48.915Z,23.40
2019-04-25T12:55:19.008Z,23.40
2019-04-25T12:57:49.462Z,23.60
2019-04-25T13:00:24.247Z,23.60
2019-04-25T13:02:56.468Z,23.60
2019-04-25T13:05:26.262Z,23.50
2019-04-25T13:07:58.396Z,23.40
2019-04-25T13:10:27.819Z,23.40
2019-04-25T13:12:57.521Z,23.40
2019-04-25T13:15:28.288Z,23.40
2019-04-25T13:17:58.256Z,23.40
2019-04-25T13:20:29.833Z,23.40
2019-04-25T13:23:00.573Z,23.50
2019-04-25T13:25:30.322Z,23.70
2019-04-25T13:28:09.197Z,23.80
2019-04-25T13:30:59.599Z,23.90
2019-04-25T13:33:35.533Z,24.00
2019-04-25T13:36:11.169Z,24.10
2019-04-25T13:38:43.656Z,24.10
2019-04-25T13:41:15.400Z,24.20
2019-04-25T13:43:45.231Z,24.10
2019-04-25T13:46:19.665Z,24.00
2019-04-25T13:48:46.573Z,24.10
2019-04-25T13:51:16.268Z,24.30
2019-04-25T13:53:45.892Z,24.50
2019-04-25T13:56:15.526Z,24.60
2019-04-25T13:58:45.437Z,24.70
2019-04-25T14:01:17.569Z,24.80
2019-04-25T14:03:56.375Z,24.90
2019-04-25T14:06:26.268Z,25.00
2019-04-25T14:08:56.432Z,25.10
2019-04-25T14:11:34.512Z,25.20
2019-04-25T14:14:05.282Z,25.30
2019-04-25T14:16:54.526Z,25.40
2019-04-25T14:19:40.325Z,25.60
2019-04-25T14:22:10.293Z,25.80
2019-04-25T14:24:39.941Z,25.90
2019-04-25T14:27:13.566Z,26.00
2019-04-25T14:29:43.692Z,25.90
2019-04-25T14:32:15.625Z,26.00
2019-04-25T14:34:45.237Z,26.00
2019-04-25T14:37:14.832Z,26.20
2019-04-25T14:39:45.073Z,26.40
2019-04-25T14:42:15.493Z,26.30
2019-04-25T14:44:46.762Z,26.30
2019-04-25T14:47:16.746Z,26.30
2019-04-25T14:49:47.586Z,26.30
2019-04-25T14:52:17.497Z,26.40
2019-04-25T14:54:56.200Z,26.50
2019-04-25T14:57:28.078Z,26.50
2019-04-25T14:59:57.716Z,26.60
2019-04-25T15:02:29.936Z,26.50
2019-04-25T15:04:59.871Z,26.50
2019-04-25T15:07:30.013Z,26.50
2019-04-25T15:09:59.648Z,26.50
2019-04-25T15:12:29.410Z,26.50
2019-04-25T15:14:59.417Z,26.40
2019-04-25T15:17:29.348Z,26.20
2019-04-25T15:19:58.972Z,26.10
2019-04-25T15:22:28.902Z,26.00
2019-04-25T15:24:58.549Z,26.10
2019-04-25T15:27:29.172Z,26.20
2019-04-25T15:29:59.214Z,26.50
2019-04-25T15:32:32.633Z,26.70
2019-04-25T15:35:02.734Z,26.70
2019-04-25T15:37:43.189Z,26.90
2019-04-25T15:40:21.587Z,27.10
2019-04-25T15:43:08.909Z,27.40
2019-04-25T15:45:47.324Z,27.90
2019-04-25T15:48:16.952Z,29.30
2019-04-25T15:50:47.209Z,30.30
2019-04-25T15:53:16.876Z,30.90
2019-04-25T15:55:46.422Z,30.90
2019-04-25T15:58:15.965Z,30.60
2019-04-25T16:00:45.726Z,30.20
2019-04-25T16:03:16.005Z,29.70
2019-04-25T16:05:45.650Z,29.10
2019-04-25T16:08:15.745Z,28.80
2019-04-25T16:10:45.448Z,28.40
2019-04-25T16:13:15.349Z,28.30
2019-04-25T16:15:45.244Z,28.00
2019-04-25T16:18:18.344Z,28.00
2019-04-25T16:20:48.014Z,28.00
2019-04-25T16:23:17.776Z,27.90
2019-04-25T16:25:47.469Z,27.80
2019-04-25T16:28:17.110Z,27.70
2019-04-25T16:30:47.620Z,27.50
2019-04-25T16:33:17.525Z,27.40
2019-04-25T16:35:47.148Z,27.20
2019-04-25T16:38:18.781Z,27.30
2019-04-25T16:40:48.697Z,27.20
2019-04-25T16:43:22.485Z,27.00
2019-04-25T16:45:52.124Z,26.80
2019-04-25T16:48:22.158Z,26.50
2019-04-25T16:50:52.149Z,26.30
2019-04-25T16:53:22.054Z,26.00
2019-04-25T16:55:52.064Z,25.80
2019-04-25T16:58:23.321Z,25.70
2019-04-25T17:01:17.988Z,25.60
2019-04-25T17:03:48.125Z,25.70
2019-04-25T17:06:17.852Z,26.00
2019-04-25T17:08:47.585Z,26.20
2019-04-25T17:11:17.995Z,26.30
2019-04-25T17:13:56.889Z,26.10
2019-04-25T17:16:52.408Z,25.90
2019-04-25T17:19:34.817Z,25.90
2019-04-25T17:22:04.841Z,26.60
2019-04-25T17:24:34.658Z,26.80
2019-04-25T17:27:05.911Z,27.00
2019-04-25T17:29:36.140Z,28.00
2019-04-25T17:32:31.733Z,28.00
2019-04-25T17:35:21.231Z,27.50
2019-04-25T17:37:54.000Z,26.90
2019-04-25T17:40:26.948Z,26.40
2019-04-25T17:42:57.205Z,25.80
2019-04-25T17:45:32.150Z,25.40
2019-04-25T17:48:03.150Z,25.10
2019-04-25T17:50:32.919Z,24.80
2019-04-25T17:53:02.873Z,24.50
2019-04-25T17:55:39.500Z,24.30
2019-04-25T17:58:10.524Z,24.50
2019-04-25T18:00:41.998Z,24.50
2019-04-25T18:03:12.357Z,24.30
2019-04-25T18:05:42.262Z,24.10
2019-04-25T18:08:12.057Z,23.80
2019-04-25T18:10:41.989Z,23.70
2019-04-25T18:13:11.601Z,23.50
2019-04-25T18:15:57.211Z,23.20
2019-04-25T18:18:51.921Z,23.00
2019-04-25T18:21:21.450Z,22.80
2019-04-25T18:24:09.176Z,22.70
2019-04-25T18:26:46.986Z,22.60
2019-04-25T18:29:17.045Z,22.40
2019-04-25T18:31:46.784Z,22.20
2019-04-25T18:34:24.531Z,22.10
2019-04-25T18:37:11.833Z,21.90
2019-04-25T18:40:00.520Z,21.80
2019-04-25T18:42:48.320Z,21.60
2019-04-25T18:45:25.112Z,21.50
2019-04-25T18:47:54.689Z,21.40
2019-04-25T18:50:26.708Z,21.30
2019-04-25T18:53:18.981Z,21.30
2019-04-25T18:55:58.076Z,21.20
2019-04-25T18:58:46.152Z,21.10
2019-04-25T19:01:27.757Z,21.10
2019-04-25T19:04:09.045Z,20.90
2019-04-25T19:06:51.052Z,20.50
2019-04-25T19:09:11.857Z,20.20
2019-04-25T19:11:41.506Z,19.80
2019-04-25T19:14:12.193Z,19.40
2019-04-25T19:16:42.975Z,19.10
2019-04-25T19:19:12.844Z,18.80
2019-04-25T19:21:43.448Z,18.50
2019-04-25T19:24:13.436Z,18.30
2019-04-25T19:26:43.617Z,18.20
2019-04-25T19:29:14.224Z,18.10
2019-04-25T19:31:44.301Z,17.80
2019-04-25T19:34:14.196Z,17.70
2019-04-25T19:36:44.791Z,17.60
2019-04-25T19:39:15.729Z,17.50
2019-04-25T19:42:14.212Z,17.50
2019-04-25T19:44:44.986Z,17.50
2019-04-25T19:47:15.134Z,17.40
2019-04-25T19:49:45.288Z,17.30
2019-04-25T19:52:14.864Z,17.30
2019-04-25T19:54:45.250Z,17.20
2019-04-25T19:57:14.882Z,17.10
2019-04-25T19:59:45.149Z,17.10
2019-04-25T20:02:25.986Z,17.00
2019-04-25T20:05:13.049Z,16.80
2019-04-25T20:07:51.296Z,16.70
2019-04-25T20:10:48.993Z,16.50
2019-04-25T20:13:18.925Z,16.50
2019-04-25T20:15:49.570Z,16.50
2019-04-25T20:18:19.470Z,16.10
2019-04-25T20:20:49.919Z,16.00
2019-04-25T20:23:19.672Z,15.80
2019-04-25T20:25:50.638Z,15.70
2019-04-25T20:28:21.053Z,15.60
2019-04-25T20:30:51.787Z,15.50
2019-04-25T20:33:21.536Z,15.40
2019-04-25T20:35:51.174Z,15.40
2019-04-25T20:38:20.738Z,15.40
2019-04-25T20:40:50.463Z,15.30
2019-04-25T20:43:20.125Z,15.30
2019-04-25T20:45:50.224Z,15.20
2019-04-25T20:48:19.940Z,15.20
2019-04-25T20:50:50.356Z,15.20
2019-04-25T20:53:20.311Z,15.20
2019-04-25T20:55:50.818Z,15.20
2019-04-25T20:58:20.772Z,15.10
2019-04-25T21:00:55.940Z,15.10
2019-04-25T21:03:25.888Z,15.10
2019-04-25T21:05:58.670Z,15.10
2019-04-25T21:08:29.248Z,15.00
2019-04-25T21:10:59.106Z,14.90
2019-04-25T21:13:37.503Z,14.90
2019-04-25T21:16:35.641Z,14.80
2019-04-25T21:19:09.809Z,14.80
2019-04-25T21:21:39.829Z,14.80
2019-04-25T21:24:09.478Z,14.70
2019-04-25T21:26:39.048Z,14.60
2019-04-25T21:29:08.748Z,14.60
2019-04-25T21:31:38.620Z,14.50
2019-04-25T21:34:08.449Z,14.60
2019-04-25T21:36:38.383Z,14.60
2019-04-25T21:39:13.643Z,14.60
2019-04-25T21:41:53.473Z,14.70
2019-04-25T21:44:23.493Z,14.60
2019-04-25T21:46:53.682Z,14.60
2019-04-25T21:49:25.309Z,14.40
2019-04-25T21:51:55.102Z,14.40
2019-04-25T21:54:25.089Z,14.30
2019-04-25T21:56:55.564Z,14.20
2019-04-25T21:59:25.732Z,14.20
2019-04-25T22:01:56.358Z,14.20
2019-04-25T22:04:38.017Z,14.20
2019-04-25T22:06:57.784Z,14.30
2019-04-25T22:09:28.723Z,14.30
2019-04-25T22:11:59.307Z,14.20
2019-04-25T22:14:29.322Z,14.20
2019-04-25T22:16:59.961Z,14.20
2019-04-25T22:19:30.123Z,14.10
2019-04-25T22:22:01.286Z,14.10
2019-04-25T22:24:30.909Z,14.10
2019-04-25T22:27:03.318Z,14.10
2019-04-25T22:29:35.835Z,14.10
2019-04-25T22:32:28.532Z,14.10
2019-04-25T22:35:24.152Z,14.10
2019-04-25T22:37:54.524Z,14.10
2019-04-25T22:40:24.088Z,14.00
2019-04-25T22:42:53.964Z,14.00
2019-04-25T22:45:23.676Z,14.00
2019-04-25T22:47:53.513Z,14.00
2019-04-25T22:50:23.386Z,14.00
2019-04-25T22:52:52.932Z,14.00
2019-04-25T22:55:22.476Z,14.00
2019-04-25T22:57:52.315Z,13.90
2019-04-25T23:00:27.253Z,13.90
2019-04-25T23:03:05.888Z,13.90
2019-04-25T23:05:40.416Z,13.80
2019-04-25T23:08:10.601Z,13.80
2019-04-25T23:10:40.160Z,13.70
2019-04-25T23:13:10.674Z,13.70
2019-04-25T23:15:40.512Z,13.70
2019-04-25T23:18:11.322Z,13.70
2019-04-25T23:20:40.986Z,13.60
2019-04-25T23:23:11.735Z,13.50
2019-04-25T23:26:08.141Z,13.50
2019-04-25T23:28:40.273Z,13.40
2019-04-25T23:31:17.414Z,13.40
2019-04-25T23:33:47.050Z,13.40
2019-04-25T23:36:17.546Z,13.30
2019-04-25T23:38:47.092Z,13.30
2019-04-25T23:41:17.669Z,13.20
2019-04-25T23:43:47.235Z,13.20
2019-04-25T23:46:16.792Z,13.10
2019-04-25T23:48:46.341Z,13.10
2019-04-25T23:51:15.922Z,12.90
2019-04-25T23:53:46.222Z,12.90
2019-04-25T23:56:17.318Z,12.80
2019-04-25T23:58:47.260Z,12.70
